Time;durP1;ratioP1;P1;durP2;ratioP2;P2;SDS_P1;SDS_P2;PMS_P1;PMS_P2;Temp;Humidity;BMP_temperature;BMP_pressure;BME280_temperature;BME280_humidity;BME280_pressure;Samples;Min_cycle;Max_cycle;Signal;HPM_P1;HPM_P2
2024/01/05 00:00:09;;;;;;;0.40;0.40;;;;;;;0.42;100.00;99723.19;4981190;28;20033;-76
2024/01/05 00:02:34;;;;;;;0.50;0.50;;;;;;;0.26;100.00;99722.84;4997793;28;20030;-76
2024/01/05 00:05:00;;;;;;;0.50;0.50;;;;;;;0.24;100.00;99724.81;4980791;28;20388;-76
2024/01/05 00:07:27;;;;;;;0.50;0.50;;;;;;;0.18;100.00;99725.34;4981268;28;20048;-75
2024/01/05 00:09:53;;;;;;;0.50;0.50;;;;;;;0.05;100.00;99724.75;4981117;28;20125;-76
2024/01/05 00:12:19;;;;;;;0.50;0.50;;;;;;;0.04;100.00;99729.19;5013220;28;20527;-76
2024/01/05 00:14:44;;;;;;;0.50;0.50;;;;;;;0.05;100.00;99730.03;4981098;28;20030;-75
2024/01/05 00:17:10;;;;;;;0.50;0.50;;;;;;;0.06;100.00;99737.00;4996967;28;20096;-75
2024/01/05 00:19:36;;;;;;;0.50;0.50;;;;;;;-0.01;100.00;99732.22;4980877;28;20033;-76
2024/01/05 00:22:02;;;;;;;0.50;0.50;;;;;;;-0.07;100.00;99729.31;4980846;28;20037;-75
2024/01/05 00:24:27;;;;;;;0.50;0.50;;;;;;;-0.11;100.00;99728.72;4980848;28;20092;-75
2024/01/05 00:26:55;;;;;;;0.50;0.50;;;;;;;-0.15;100.00;99737.88;4980868;28;20037;-75
2024/01/05 00:29:21;;;;;;;0.50;0.50;;;;;;;-0.19;100.00;99735.63;4981182;28;20096;-75
2024/01/05 00:31:47;;;;;;;0.50;0.50;;;;;;;-0.26;100.00;99735.34;4980787;28;20038;-75
2024/01/05 00:34:14;;;;;;;0.50;0.50;;;;;;;-0.19;100.00;99744.38;4980591;28;20030;-75
2024/01/05 00:36:41;;;;;;;0.50;0.50;;;;;;;-0.07;100.00;99742.50;4980660;28;20042;-75
2024/01/05 00:39:06;;;;;;;0.50;0.50;;;;;;;0.04;100.00;99758.28;5013875;28;20030;-75
2024/01/05 00:41:32;;;;;;;0.50;0.50;;;;;;;0.19;100.00;99754.31;4980389;28;20477;-76
2024/01/05 00:43:58;;;;;;;0.40;0.40;;;;;;;0.37;100.00;99756.28;4980649;28;20061;-75
2024/01/05 00:46:24;;;;;;;0.50;0.50;;;;;;;0.50;100.00;99761.34;4980546;28;20465;-75
2024/01/05 00:48:49;;;;;;;0.50;0.50;;;;;;;0.59;100.00;99757.88;4980557;28;20038;-75
2024/01/05 00:51:15;;;;;;;0.40;0.40;;;;;;;0.61;100.00;99763.88;4980577;28;20504;-75
2024/01/05 00:53:41;;;;;;;0.50;0.50;;;;;;;0.66;100.00;99764.28;4980444;28;20066;-75
2024/01/05 00:56:07;;;;;;;0.40;0.40;;;;;;;0.65;100.00;99763.47;4995655;28;20056;-75
2024/01/05 00:58:33;;;;;;;0.50;0.50;;;;;;;0.66;100.00;99769.56;4996400;28;20048;-75
2024/01/05 01:00:59;;;;;;;0.50;0.50;;;;;;;0.67;100.00;99765.97;4980516;28;20113;-75
2024/01/05 01:03:25;;;;;;;0.50;0.50;;;;;;;0.63;100.00;99767.22;4996511;28;20095;-75
2024/01/05 01:05:51;;;;;;;0.50;0.50;;;;;;;0.44;100.00;99768.84;4980335;28;20045;-75
2024/01/05 01:08:16;;;;;;;0.50;0.50;;;;;;;0.26;100.00;99770.44;4996056;28;20044;-76
2024/01/05 01:10:45;;;;;;;0.50;0.50;;;;;;;0.25;100.00;99767.97;4980218;28;20165;-76
2024/01/05 01:13:13;;;;;;;0.50;0.50;;;;;;;0.12;100.00;99769.00;5012736;28;20040;-75
2024/01/05 01:15:39;;;;;;;0.40;0.40;;;;;;;-0.13;100.00;99770.31;4980282;28;20034;-76
2024/01/05 01:18:05;;;;;;;0.40;0.40;;;;;;;-0.27;100.00;99775.91;5012211;28;20388;-75
2024/01/05 01:20:33;;;;;;;0.50;0.50;;;;;;;-0.35;100.00;99770.44;4980175;28;20038;-75
2024/01/05 01:23:02;;;;;;;0.40;0.40;;;;;;;-0.43;100.00;99776.38;4980452;28;20041;-75
2024/01/05 01:25:30;;;;;;;0.50;0.50;;;;;;;-0.46;100.00;99780.09;4980122;28;20041;-75
2024/01/05 01:27:55;;;;;;;0.50;0.50;;;;;;;-0.49;100.00;99780.38;4980541;28;20184;-75
2024/01/05 01:30:21;;;;;;;0.40;0.40;;;;;;;-0.58;100.00;99775.88;4980200;28;20029;-75
2024/01/05 01:32:49;;;;;;;0.50;0.50;;;;;;;-0.55;100.00;99780.91;4980671;28;20038;-76
2024/01/05 01:35:15;;;;;;;0.40;0.40;;;;;;;-0.56;100.00;99779.22;4979778;28;20384;-75
2024/01/05 01:37:43;;;;;;;0.40;0.40;;;;;;;-0.57;100.00;99779.34;4980101;28;20033;-76
2024/01/05 01:40:09;;;;;;;0.50;0.50;;;;;;;-0.68;100.00;99781.09;4980247;28;20177;-76
2024/01/05 01:42:36;;;;;;;0.50;0.50;;;;;;;-0.70;100.00;99790.91;4996042;28;20100;-76
2024/01/05 01:45:04;;;;;;;0.50;0.50;;;;;;;-0.67;100.00;99793.31;4996381;28;20139;-75
2024/01/05 01:47:33;;;;;;;0.50;0.50;;;;;;;-0.60;100.00;99788.38;4980143;28;20377;-75
2024/01/05 01:50:01;;;;;;;0.50;0.50;;;;;;;-0.56;100.00;99794.22;4980261;28;20037;-75
2024/01/05 01:52:27;;;;;;;0.50;0.50;;;;;;;-0.48;100.00;99791.78;4979994;28;20042;-76
2024/01/05 01:54:54;;;;;;;0.40;0.40;;;;;;;-0.44;100.00;99793.19;4979813;28;20037;-75
2024/01/05 01:57:20;;;;;;;0.43;0.43;;;;;;;-0.40;100.00;99793.78;4963994;28;20034;-75
2024/01/05 01:59:46;;;;;;;0.50;0.50;;;;;;;-0.34;100.00;99803.84;4979861;28;20069;-75
2024/01/05 02:02:12;;;;;;;0.50;0.50;;;;;;;-0.29;100.00;99810.41;4996001;28;20087;-75
2024/01/05 02:04:39;;;;;;;0.50;0.50;;;;;;;-0.22;100.00;99816.00;5011797;28;20033;-76
2024/01/05 02:07:06;;;;;;;0.47;0.47;;;;;;;-0.04;100.00;99819.72;5012271;28;20045;-75
2024/01/05 02:09:32;;;;;;;0.50;0.50;;;;;;;0.14;100.00;99808.53;5014640;28;20037;-75
2024/01/05 02:12:00;;;;;;;0.50;0.50;;;;;;;0.17;100.00;99822.31;4983780;28;20044;-75
2024/01/05 02:14:27;;;;;;;0.40;0.40;;;;;;;0.14;100.00;99816.47;4983130;28;20026;-75
2024/01/05 02:17:32;;;;;;;0.50;0.50;;;;;;;0.06;100.00;99816.31;4988832;28;20026;-76
2024/01/05 02:20:04;;;;;;;0.50;0.50;;;;;;;0.06;100.00;99826.88;5015664;28;20496;-75
2024/01/05 02:22:30;;;;;;;0.40;0.40;;;;;;;0.20;100.00;99832.63;4983125;28;20042;-76
2024/01/05 02:25:00;;;;;;;0.50;0.50;;;;;;;0.38;100.00;99821.44;4998903;28;20045;-75
2024/01/05 02:27:28;;;;;;;0.50;0.50;;;;;;;0.46;100.00;99828.72;4983368;28;20033;-75
2024/01/05 02:29:57;;;;;;;0.40;0.40;;;;;;;0.54;100.00;99842.09;4983059;28;20045;-75
2024/01/05 02:32:22;;;;;;;0.50;0.50;;;;;;;0.63;100.00;99836.00;4998720;28;20037;-75
2024/01/05 02:34:52;;;;;;;0.50;0.50;;;;;;;0.67;100.00;99831.28;4982446;28;20113;-75
2024/01/05 02:37:23;;;;;;;0.40;0.40;;;;;;;0.64;100.00;99842.97;4998821;28;20045;-75
2024/01/05 02:39:51;;;;;;;0.40;0.40;;;;;;;0.48;100.00;99837.31;4983029;28;20045;-75
2024/01/05 02:42:19;;;;;;;0.50;0.50;;;;;;;0.28;100.00;99847.00;4999209;28;20042;-75
2024/01/05 02:44:45;;;;;;;0.55;0.55;;;;;;;0.12;100.00;99843.03;4982816;28;20072;-75
2024/01/05 02:47:11;;;;;;;0.50;0.50;;;;;;;-0.04;100.00;99855.88;4982711;28;20069;-76
2024/01/05 02:49:39;;;;;;;0.50;0.50;;;;;;;-0.18;100.00;99854.41;4982802;28;20057;-75
2024/01/05 02:52:07;;;;;;;0.50;0.50;;;;;;;-0.29;100.00;99854.44;4998741;28;20469;-75
2024/01/05 02:54:37;;;;;;;0.47;0.47;;;;;;;-0.48;100.00;99853.38;5014855;28;20030;-76
2024/01/05 02:57:05;;;;;;;0.50;0.50;;;;;;;-0.61;100.00;99851.84;4998640;28;20034;-75
2024/01/05 02:59:36;;;;;;;0.50;0.50;;;;;;;-0.77;100.00;99850.47;4982403;28;20128;-75
2024/01/05 03:02:04;;;;;;;0.50;0.50;;;;;;;-0.87;100.00;99852.19;4998565;28;20037;-76
2024/01/05 03:04:29;;;;;;;0.50;0.50;;;;;;;-0.79;100.00;99854.22;4982520;28;20046;-75
2024/01/05 03:06:58;;;;;;;0.50;0.50;;;;;;;-0.84;100.00;99857.22;4983021;28;20072;-75
2024/01/05 03:09:26;;;;;;;0.50;0.50;;;;;;;-0.79;100.00;99859.50;4998392;28;20034;-75
2024/01/05 03:11:52;;;;;;;0.50;0.50;;;;;;;-0.79;100.00;99856.84;4998396;28;20038;-75
2024/01/05 03:14:18;;;;;;;0.50;0.50;;;;;;;-0.77;100.00;99852.25;4982023;28;20030;-75
2024/01/05 03:16:44;;;;;;;0.50;0.50;;;;;;;-0.63;100.00;99856.44;4982157;28;20504;-75
2024/01/05 03:19:13;;;;;;;0.50;0.50;;;;;;;-0.47;100.00;99860.31;4997893;28;20057;-75
2024/01/05 03:21:42;;;;;;;0.50;0.50;;;;;;;-0.25;100.00;99866.44;4998244;28;20038;-76
2024/01/05 03:24:07;;;;;;;0.50;0.50;;;;;;;-0.05;100.00;99862.16;4977361;28;20042;-75
2024/01/05 03:26:36;;;;;;;0.40;0.40;;;;;;;-0.13;100.00;99854.00;4981694;28;20120;-75
2024/01/05 03:29:02;;;;;;;0.50;0.50;;;;;;;-0.23;100.00;99869.81;4982715;28;20084;-76
2024/01/05 03:31:30;;;;;;;0.50;0.50;;;;;;;-0.27;100.00;99868.38;4997908;28;20046;-76
2024/01/05 03:33:59;;;;;;;0.50;0.50;;;;;;;-0.42;100.00;99867.00;4981695;28;20522;-75
2024/01/05 03:36:24;;;;;;;0.50;0.50;;;;;;;-0.62;100.00;99869.50;4977085;28;20038;-76
2024/01/05 03:38:50;;;;;;;0.50;0.50;;;;;;;-0.76;100.00;99872.44;4981584;28;20037;-75
2024/01/05 03:41:16;;;;;;;0.50;0.50;;;;;;;-0.91;100.00;99872.69;4981745;28;20034;-75
2024/01/05 03:43:44;;;;;;;0.50;0.50;;;;;;;-1.02;100.00;99875.38;4982286;28;20030;-75
2024/01/05 03:46:15;;;;;;;0.50;0.50;;;;;;;-1.16;100.00;99865.09;4982905;28;20048;-75
2024/01/05 03:48:40;;;;;;;0.47;0.47;;;;;;;-1.17;100.00;99876.59;4997589;28;20041;-75
2024/01/05 03:51:06;;;;;;;0.50;0.50;;;;;;;-1.12;100.00;99877.06;4997720;28;20038;-75
2024/01/05 03:53:32;;;;;;;0.50;0.50;;;;;;;-0.96;100.00;99882.78;4981442;28;20127;-75
2024/01/05 03:55:58;;;;;;;0.50;0.50;;;;;;;-0.68;100.00;99885.84;4981445;28;20034;-75
2024/01/05 03:58:24;;;;;;;0.50;0.50;;;;;;;-0.63;100.00;99878.38;4981312;28;20137;-75
2024/01/05 04:00:53;;;;;;;0.50;0.50;;;;;;;-0.66;100.00;99878.66;4997546;28;20041;-75
2024/01/05 04:03:19;;;;;;;0.50;0.50;;;;;;;-0.63;100.00;99880.19;4981504;28;20480;-75
2024/01/05 04:05:47;;;;;;;0.50;0.50;;;;;;;-0.62;100.00;99877.41;4997370;28;20038;-75
2024/01/05 04:08:16;;;;;;;0.55;0.55;;;;;;;-0.72;100.00;99876.50;4997361;28;20033;-76
2024/01/05 04:10:42;;;;;;;0.50;0.50;;;;;;;-0.88;100.00;99887.44;4981149;28;20034;-75
2024/01/05 04:13:10;;;;;;;0.50;0.50;;;;;;;-1.00;100.00;99889.28;4997100;28;20041;-75
2024/01/05 04:15:36;;;;;;;0.50;0.50;;;;;;;-1.08;100.00;99883.78;4997020;28;20034;-76
2024/01/05 04:18:02;;;;;;;0.40;0.40;;;;;;;-1.16;100.00;99881.75;4996781;28;20033;-75
2024/01/05 04:20:28;;;;;;;0.57;0.57;;;;;;;-0.97;100.00;99891.69;4980969;28;20034;-75
2024/01/05 04:22:57;;;;;;;0.50;0.50;;;;;;;-0.95;100.00;99896.84;4981940;28;20038;-75
2024/01/05 04:25:22;;;;;;;0.50;0.50;;;;;;;-0.85;100.00;99903.03;4996856;28;20769;-75
2024/01/05 04:27:48;;;;;;;0.50;0.50;;;;;;;-0.64;100.00;99903.09;4981094;28;20034;-75
2024/01/05 04:30:15;;;;;;;0.50;0.50;;;;;;;-0.63;100.00;99904.78;4980834;28;20386;-75
2024/01/05 04:32:42;;;;;;;0.50;0.50;;;;;;;-0.69;100.00;99910.56;4997063;28;20119;-75
2024/01/05 04:35:36;;;;;;;0.50;0.50;;;;;;;-0.58;100.00;99910.53;4980603;28;20479;-75
2024/01/05 04:38:06;;;;;;;0.50;0.50;;;;;;;-0.51;100.00;99911.69;4982087;28;20033;-75
2024/01/05 04:40:33;;;;;;;0.40;0.40;;;;;;;-0.43;100.00;99920.81;4996764;28;20132;-75
2024/01/05 04:42:59;;;;;;;0.40;0.40;;;;;;;-0.51;100.00;99924.06;4980643;28;20037;-75
2024/01/05 04:45:36;;;;;;;0.60;0.60;;;;;;;-0.61;100.00;99921.31;4980561;28;20122;-75
2024/01/05 04:48:05;;;;;;;0.40;0.40;;;;;;;-0.71;100.00;99912.50;5012713;28;20038;-75
2024/01/05 04:50:42;;;;;;;0.50;0.50;;;;;;;-0.81;100.00;99916.84;4980547;28;20029;-75
2024/01/05 04:53:12;;;;;;;0.50;0.50;;;;;;;-0.74;100.00;99921.50;4981107;28;20050;-75
2024/01/05 04:55:38;;;;;;;0.50;0.50;;;;;;;-0.72;100.00;99927.47;5012582;28;20034;-75
2024/01/05 04:58:18;;;;;;;0.40;0.40;;;;;;;-0.74;100.00;99928.56;4997126;28;20166;-75
2024/01/05 05:00:48;;;;;;;0.40;0.40;;;;;;;-0.69;100.00;99937.81;4980104;28;20053;-75
2024/01/05 05:03:14;;;;;;;0.40;0.40;;;;;;;-0.65;100.00;99943.69;4980264;28;20042;-75
2024/01/05 05:05:40;;;;;;;0.40;0.40;;;;;;;-0.74;100.00;99937.34;4980470;28;20087;-75
2024/01/05 05:08:10;;;;;;;0.50;0.50;;;;;;;-0.81;100.00;99936.16;4980749;28;20026;-75
2024/01/05 05:10:39;;;;;;;0.40;0.40;;;;;;;-0.89;100.00;99936.75;4997160;28;20034;-75
2024/01/05 05:13:05;;;;;;;0.50;0.50;;;;;;;-0.96;100.00;99935.56;4980168;28;20030;-75
2024/01/05 05:15:34;;;;;;;0.50;0.50;;;;;;;-1.09;100.00;99945.41;4979917;28;20030;-75
2024/01/05 05:17:59;;;;;;;0.50;0.50;;;;;;;-1.25;100.00;99950.22;5012413;28;20496;-75
2024/01/05 05:20:25;;;;;;;0.50;0.50;;;;;;;-1.18;100.00;99956.69;4996060;28;20034;-75
2024/01/05 05:22:51;;;;;;;0.50;0.50;;;;;;;-1.13;100.00;99957.19;4980219;28;20388;-75
2024/01/05 05:25:19;;;;;;;0.50;0.50;;;;;;;-1.09;100.00;99955.97;4980032;28;20042;-75
2024/01/05 05:27:45;;;;;;;0.50;0.50;;;;;;;-1.13;100.00;99955.38;4996421;28;20044;-75
2024/01/05 05:30:11;;;;;;;0.40;0.40;;;;;;;-1.15;100.00;99967.00;4980113;28;20026;-75
2024/01/05 05:32:39;;;;;;;0.47;0.47;;;;;;;-1.14;100.00;99969.53;4980646;28;20092;-75
2024/01/05 05:35:05;;;;;;;0.40;0.40;;;;;;;-1.14;100.00;99966.91;4995859;28;20030;-75
2024/01/05 05:37:31;;;;;;;0.50;0.50;;;;;;;-1.10;100.00;99964.84;4980135;28;20129;-75
2024/01/05 05:39:57;;;;;;;0.50;0.50;;;;;;;-1.22;100.00;99974.53;4995972;28;20076;-75
2024/01/05 05:42:27;;;;;;;0.50;0.50;;;;;;;-1.37;100.00;99973.97;4980074;28;20038;-75
2024/01/05 05:44:55;;;;;;;0.50;0.50;;;;;;;-1.46;100.00;99979.94;4983362;28;20361;-75
2024/01/05 05:47:21;;;;;;;0.40;0.40;;;;;;;-1.49;100.00;99976.69;4999855;28;20064;-75
2024/01/05 05:49:47;;;;;;;0.50;0.50;;;;;;;-1.37;100.00;99979.22;4999846;28;20041;-75
2024/01/05 05:52:14;;;;;;;0.50;0.50;;;;;;;-1.08;100.00;99991.13;5015705;28;20037;-75
2024/01/05 05:54:40;;;;;;;0.50;0.50;;;;;;;-0.91;100.00;99982.72;4983360;28;20034;-74
2024/01/05 05:57:07;;;;;;;0.50;0.50;;;;;;;-0.75;100.00;99980.53;4983507;28;20099;-75
2024/01/05 05:59:36;;;;;;;0.50;0.50;;;;;;;-0.60;100.00;99989.03;4983565;28;20034;-75
2024/01/05 06:02:04;;;;;;;0.40;0.40;;;;;;;-0.37;100.00;99991.59;4984296;28;20034;-76
2024/01/05 06:04:29;;;;;;;0.40;0.40;;;;;;;-0.27;100.00;99997.81;4983262;28;20029;-75
2024/01/05 06:06:56;;;;;;;0.40;0.40;;;;;;;-0.15;100.00;100001.28;4983114;28;20050;-74
2024/01/05 06:09:26;;;;;;;0.50;0.50;;;;;;;0.04;100.00;100009.34;4999605;28;20045;-75
2024/01/05 06:11:59;;;;;;;0.45;0.45;;;;;;;0.18;100.00;100005.56;5001094;28;20046;-74
2024/01/05 06:14:25;;;;;;;0.50;0.50;;;;;;;0.24;100.00;100005.06;4999190;28;20041;-75
2024/01/05 06:16:50;;;;;;;0.50;0.50;;;;;;;0.30;100.00;100011.66;4983223;28;20036;-75
2024/01/05 06:19:16;;;;;;;0.50;0.50;;;;;;;0.32;100.00;100012.34;4983098;28;20461;-75
2024/01/05 06:21:42;;;;;;;0.43;0.43;;;;;;;0.20;100.00;100016.84;4967060;28;20065;-75
2024/01/05 06:24:10;;;;;;;0.50;0.50;;;;;;;-0.03;100.00;100021.38;4999072;28;20033;-75
2024/01/05 06:26:35;;;;;;;0.50;0.50;;;;;;;-0.29;100.00;100023.50;4982966;28;20044;-75
2024/01/05 06:29:02;;;;;;;0.50;0.50;;;;;;;-0.36;100.00;100027.63;4999155;28;20030;-75
2024/01/05 06:31:27;;;;;;;0.57;0.57;;;;;;;-0.39;100.00;100027.88;4982927;28;20045;-75
2024/01/05 06:33:55;;;;;;;0.50;0.50;;;;;;;-0.54;100.00;100033.41;4982321;28;20025;-75
2024/01/05 06:36:22;;;;;;;0.50;0.50;;;;;;;-0.75;100.00;100035.97;4998982;28;20038;-75
2024/01/05 06:38:47;;;;;;;0.50;0.50;;;;;;;-0.73;100.00;100036.69;4982605;28;20042;-75
2024/01/05 06:41:13;;;;;;;0.50;0.50;;;;;;;-0.65;100.00;100043.16;4982728;28;20037;-75
2024/01/05 06:43:39;;;;;;;0.50;0.50;;;;;;;-0.53;100.00;100052.72;4998621;28;20030;-75
2024/01/05 06:46:05;;;;;;;0.50;0.50;;;;;;;-0.46;100.00;100051.28;4982559;28;20026;-75
2024/01/05 06:48:30;;;;;;;0.50;0.50;;;;;;;-0.17;100.00;100054.22;4982711;28;20025;-75
2024/01/05 06:50:59;;;;;;;0.50;0.50;;;;;;;-0.05;100.00;100063.81;4998784;28;20512;-75
2024/01/05 06:53:25;;;;;;;0.47;0.47;;;;;;;0.07;100.00;100061.97;4998663;28;20041;-75
2024/01/05 06:55:51;;;;;;;0.50;0.50;;;;;;;0.02;100.00;100076.53;4981144;28;20037;-75
2024/01/05 06:58:16;;;;;;;0.50;0.50;;;;;;;-0.03;100.00;100077.75;4982479;28;20033;-75
2024/01/05 07:00:45;;;;;;;0.50;0.50;;;;;;;-0.19;100.00;100073.81;4983308;28;20124;-74
2024/01/05 07:03:11;;;;;;;0.40;0.40;;;;;;;-0.19;100.00;100085.22;4982457;28;20485;-75
2024/01/05 07:05:37;;;;;;;0.50;0.50;;;;;;;-0.28;100.00;100091.25;5014424;28;20496;-75
2024/01/05 07:08:10;;;;;;;0.50;0.50;;;;;;;-0.42;100.00;100088.84;4982251;28;20037;-75
2024/01/05 07:10:39;;;;;;;0.50;0.50;;;;;;;-0.49;100.00;100086.72;5014710;28;20034;-75
2024/01/05 07:13:10;;;;;;;0.50;0.50;;;;;;;-0.60;100.00;100094.66;4982298;28;20037;-75
2024/01/05 07:15:36;;;;;;;0.50;0.50;;;;;;;-0.64;100.00;100098.47;4981844;28;20022;-75
2024/01/05 07:18:05;;;;;;;0.50;0.50;;;;;;;-0.74;100.00;100097.50;4998676;28;20041;-75
2024/01/05 07:20:32;;;;;;;0.50;0.50;;;;;;;-0.83;100.00;100100.88;4982188;28;20037;-75
2024/01/05 07:22:58;;;;;;;0.50;0.50;;;;;;;-0.88;100.00;100109.13;4982055;28;20504;-75
2024/01/05 07:25:25;;;;;;;0.40;0.40;;;;;;;-0.96;100.00;100111.53;4982084;28;20036;-75
2024/01/05 07:27:56;;;;;;;0.50;0.50;;;;;;;-0.94;100.00;100115.75;4982788;28;20049;-75
2024/01/05 07:30:24;;;;;;;0.50;0.50;;;;;;;-0.94;100.00;100126.28;4998232;28;20061;-75
2024/01/05 07:33:15;;;;;;;0.50;0.50;;;;;;;-0.92;100.00;100118.28;4987230;28;20041;-75
2024/01/05 07:35:48;;;;;;;0.50;0.50;;;;;;;-0.89;100.00;100129.41;4983445;28;20034;-74
2024/01/05 07:38:16;;;;;;;0.50;0.50;;;;;;;-0.81;100.00;100130.63;4982719;28;20030;-75
2024/01/05 07:40:45;;;;;;;0.40;0.40;;;;;;;-0.76;100.00;100139.03;4981677;28;20042;-74
2024/01/05 07:43:12;;;;;;;0.50;0.50;;;;;;;-0.89;100.00;100137.34;4981553;28;20033;-74
2024/01/05 07:45:38;;;;;;;0.40;0.40;;;;;;;-0.93;100.00;100150.88;4981870;28;20045;-75
2024/01/05 07:48:05;;;;;;;0.40;0.40;;;;;;;-1.08;100.00;100144.97;4997803;28;20052;-74
2024/01/05 07:50:31;;;;;;;0.50;0.50;;;;;;;-1.11;100.00;100158.41;4997631;28;20124;-74
2024/01/05 07:52:57;;;;;;;0.50;0.50;;;;;;;-1.05;100.00;100160.59;5013453;28;20045;-74
2024/01/05 07:55:32;;;;;;;0.50;0.50;;;;;;;-1.02;100.00;100172.69;4997054;28;20038;-74
2024/01/05 07:57:58;;;;;;;0.50;0.50;;;;;;;-1.08;100.00;100171.38;4982384;28;20341;-74
2024/01/05 08:00:23;;;;;;;0.50;0.50;;;;;;;-0.96;100.00;100178.34;4981430;28;20128;-75
2024/01/05 08:02:49;;;;;;;0.50;0.50;;;;;;;-0.96;100.00;100161.66;4981398;28;20038;-75
2024/01/05 08:05:15;;;;;;;0.50;0.50;;;;;;;-0.96;100.00;100180.16;4996801;28;20116;-74
2024/01/05 08:07:44;;;;;;;0.50;0.50;;;;;;;-1.02;100.00;100178.81;4981102;28;20034;-74
2024/01/05 08:10:11;;;;;;;0.50;0.50;;;;;;;-0.93;100.00;100183.41;4997286;28;20070;-74
2024/01/05 08:12:36;;;;;;;0.50;0.50;;;;;;;-0.83;100.00;100185.34;4997381;28;20136;-74
2024/01/05 08:15:05;;;;;;;0.50;0.50;;;;;;;-0.93;100.00;100185.19;4980875;28;20124;-74
2024/01/05 08:17:40;;;;;;;0.43;0.43;;;;;;;-1.04;100.00;100199.19;4983493;28;20036;-74
2024/01/05 08:20:10;;;;;;;0.50;0.50;;;;;;;-0.98;100.00;100204.03;4980685;28;20121;-74
2024/01/05 08:22:36;;;;;;;0.50;0.50;;;;;;;-0.82;100.00;100211.63;4981023;28;20049;-75
2024/01/05 08:25:03;;;;;;;0.50;0.50;;;;;;;-0.52;100.00;100216.34;4964701;28;20046;-75
2024/01/05 08:27:57;;;;;;;0.50;0.50;;;;;;;-0.49;100.00;100221.41;4999444;28;20037;-75
2024/01/05 08:30:22;;;;;;;0.50;0.50;;;;;;;-0.29;100.00;100219.88;4980720;28;20037;-74
2024/01/05 08:32:59;;;;;;;;;;;;;;;;;;;;;
2024/01/05 08:35:31;;;;;;;0.50;0.50;;;;;;;0.15;100.00;100222.59;5009760;28;20489;-76
2024/01/05 08:37:57;;;;;;;0.50;0.50;;;;;;;0.17;100.00;100236.56;4995926;28;20030;-74
2024/01/05 08:40:26;;;;;;;0.50;0.50;;;;;;;0.09;100.00;100249.53;4980198;28;20088;-75
2024/01/05 08:42:55;;;;;;;0.50;0.50;;;;;;;-0.03;100.00;100246.91;4980951;28;20085;-75
2024/01/05 08:45:21;;;;;;;0.40;0.40;;;;;;;-0.16;100.00;100251.47;4980427;28;20038;-75
2024/01/05 08:48:05;;;;;;;0.50;0.50;;;;;;;-0.25;100.00;100258.28;5012747;28;20026;-75
2024/01/05 08:50:34;;;;;;;0.50;0.50;;;;;;;-0.33;100.00;100260.69;4980201;28;20492;-75
2024/01/05 08:53:00;;;;;;;0.50;0.50;;;;;;;-0.39;100.00;100266.44;4965403;28;20100;-75
2024/01/05 08:55:38;;;;;;;0.50;0.50;;;;;;;-0.35;100.00;100267.03;4980063;28;20038;-75
2024/01/05 08:58:04;;;;;;;0.50;0.50;;;;;;;-0.42;100.00;100276.38;4980652;28;20121;-76
2024/01/05 09:00:33;;;;;;;0.50;0.50;;;;;;;-0.58;100.00;100266.13;4981401;28;20033;-75
2024/01/05 09:03:04;;;;;;;0.50;0.50;;;;;;;-0.71;100.00;100260.97;4981562;28;20120;-75
2024/01/05 09:05:30;;;;;;;0.40;0.40;;;;;;;-0.58;100.00;100276.69;4996284;28;20486;-75
2024/01/05 09:07:55;;;;;;;0.50;0.50;;;;;;;-0.33;100.00;100276.53;4996397;28;20065;-75
2024/01/05 09:10:21;;;;;;;0.50;0.50;;;;;;;-0.20;100.00;100272.97;4996397;28;20053;-75
2024/01/05 09:12:47;;;;;;;0.50;0.50;;;;;;;-0.16;100.00;100277.03;4996349;28;20030;-76
2024/01/05 09:15:13;;;;;;;0.50;0.50;;;;;;;-0.04;100.00;100279.56;4979925;28;20461;-75
2024/01/05 09:17:42;;;;;;;0.50;0.50;;;;;;;-0.10;100.00;100280.03;4997123;28;20084;-74
2024/01/05 09:20:08;;;;;;;0.50;0.50;;;;;;;-0.10;100.00;100281.84;4984162;28;20495;-75
2024/01/05 09:22:34;;;;;;;0.50;0.50;;;;;;;-0.15;100.00;100282.19;4982741;28;20138;-76
2024/01/05 09:25:02;;;;;;;0.50;0.50;;;;;;;0.04;100.00;100289.53;5000247;28;20461;-76
2024/01/05 09:27:29;;;;;;;0.50;0.50;;;;;;;0.11;100.00;100295.22;4984214;28;20111;-75
2024/01/05 09:29:56;;;;;;;0.50;0.50;;;;;;;-0.02;100.00;100301.44;4983631;28;20457;-75
2024/01/05 09:32:24;;;;;;;0.45;0.45;;;;;;;-0.19;100.00;100307.16;5000043;28;20037;-75
2024/01/05 09:34:55;;;;;;;0.50;0.50;;;;;;;-0.23;100.00;100313.66;4984536;28;20136;-75
2024/01/05 09:37:28;;;;;;;0.50;0.50;;;;;;;-0.07;100.00;100314.16;4983788;28;20034;-75
2024/01/05 09:40:14;;;;;;;0.50;0.50;;;;;;;0.20;100.00;100318.25;4988702;28;20041;-75
2024/01/05 09:43:02;;;;;;;0.50;0.50;;;;;;;0.14;100.00;100327.53;4989057;28;20112;-75
2024/01/05 09:45:49;;;;;;;0.50;0.50;;;;;;;0.42;100.00;100335.91;4989241;28;20030;-75
2024/01/05 09:48:36;;;;;;;0.50;0.50;;;;;;;0.67;100.00;100340.13;4988636;28;20035;-76
2024/01/05 09:51:25;;;;;;;0.50;0.50;;;;;;;0.94;100.00;100336.22;4989248;28;20087;-75
2024/01/05 09:54:13;;;;;;;0.50;0.50;;;;;;;0.97;100.00;100349.19;4988617;28;20480;-75
2024/01/05 09:57:01;;;;;;;0.50;0.50;;;;;;;1.08;100.00;100354.47;4975697;28;20088;-75
2024/01/05 09:59:47;;;;;;;0.50;0.50;;;;;;;1.29;100.00;100355.34;4976284;28;20033;-75
2024/01/05 10:02:42;;;;;;;0.40;0.40;;;;;;;1.56;100.00;100359.34;4988862;28;20041;-75
2024/01/05 10:05:30;;;;;;;0.50;0.50;;;;;;;1.52;100.00;100361.41;4988918;28;20555;-75
2024/01/05 10:08:15;;;;;;;0.50;0.50;;;;;;;1.71;100.00;100368.66;4988945;28;20117;-75
2024/01/05 10:11:03;;;;;;;0.57;0.57;;;;;;;2.00;100.00;100378.63;4988478;28;20433;-75
2024/01/05 10:13:56;;;;;;;0.50;0.50;;;;;;;1.99;100.00;100379.63;5015256;28;20095;-75
2024/01/05 10:16:43;;;;;;;0.50;0.50;;;;;;;2.15;100.00;100382.63;4975057;28;20042;-74
2024/01/05 10:19:29;;;;;;;0.50;0.50;;;;;;;2.50;100.00;100393.84;5016104;28;20397;-74
2024/01/05 10:22:15;;;;;;;0.40;0.40;;;;;;;3.31;100.00;100392.00;4988511;28;20104;-75
2024/01/05 10:25:14;;;;;;;0.50;0.50;;;;;;;4.03;100.00;100397.88;4988674;28;20112;-75
2024/01/05 10:28:24;;;;;;;0.50;0.50;;;;;;;4.46;100.00;100400.00;4988310;28;20034;-75
2024/01/05 10:31:15;;;;;;;0.50;0.50;;;;;;;4.75;100.00;100393.72;4990428;28;20072;-75
2024/01/05 10:34:00;;;;;;;0.40;0.40;;;;;;;5.01;100.00;100399.22;5001505;28;20040;-75
2024/01/05 10:36:47;;;;;;;0.43;0.43;;;;;;;4.95;100.00;100405.13;4988412;28;20473;-76
2024/01/05 10:39:35;;;;;;;0.50;0.50;;;;;;;4.53;100.00;100405.59;5002475;28;20034;-75
2024/01/05 10:42:25;;;;;;;0.50;0.50;;;;;;;4.08;100.00;100411.59;4988358;28;20168;-75
2024/01/05 10:45:11;;;;;;;0.50;0.50;;;;;;;4.35;100.00;100414.31;4988427;28;20034;-75
2024/01/05 10:47:59;;;;;;;0.40;0.40;;;;;;;4.49;100.00;100409.53;5001194;28;20040;-76
2024/01/05 10:50:44;;;;;;;0.50;0.50;;;;;;;4.62;100.00;100413.53;4987956;28;20046;-75
2024/01/05 10:53:30;;;;;;;0.50;0.50;;;;;;;4.41;100.00;100416.41;4987838;28;20357;-75
2024/01/05 10:56:19;;;;;;;0.50;0.50;;;;;;;4.52;100.00;100418.03;5001061;28;20046;-75
2024/01/05 10:59:04;;;;;;;0.50;0.50;;;;;;;4.72;100.00;100420.66;5014968;28;20038;-75
2024/01/05 11:01:50;;;;;;;0.40;0.40;;;;;;;4.61;100.00;100427.84;4987694;28;20034;-76
2024/01/05 11:04:41;;;;;;;0.50;0.50;;;;;;;4.76;100.00;100433.56;4987609;28;20061;-74
2024/01/05 11:07:30;;;;;;;0.50;0.50;;;;;;;4.64;100.00;100432.03;4987315;28;20049;-74
2024/01/05 11:10:35;;;;;;;0.50;0.50;;;;;;;4.77;100.00;100424.56;5001136;28;20037;-74
2024/01/05 11:13:29;;;;;;;0.40;0.40;;;;;;;4.88;100.00;100433.34;5001102;28;20179;-74
2024/01/05 11:16:40;;;;;;;0.50;0.50;;;;;;;4.80;100.00;100432.25;5000638;28;20033;-75
2024/01/05 11:19:37;;;;;;;0.40;0.40;;;;;;;4.77;100.00;100435.22;5000818;28;20088;-74
2024/01/05 11:22:33;;;;;;;0.50;0.50;;;;;;;4.61;100.00;100435.84;5001011;28;20034;-74
2024/01/05 11:25:20;;;;;;;0.43;0.43;;;;;;;4.79;100.00;100425.25;5001267;28;20499;-76
2024/01/05 11:28:06;;;;;;;0.40;0.40;;;;;;;4.89;100.00;100427.03;5001494;28;20088;-75
2024/01/05 11:30:55;;;;;;;0.50;0.50;;;;;;;4.79;100.00;100432.38;4987335;28;20030;-74
2024/01/05 11:33:48;;;;;;;0.50;0.50;;;;;;;4.53;100.00;100429.56;4987512;28;20129;-74
2024/01/05 11:36:49;;;;;;;0.50;0.50;;;;;;;4.47;100.00;100422.13;5000813;28;20034;-74
2024/01/05 11:39:53;;;;;;;0.50;0.50;;;;;;;4.48;100.00;100426.50;5000891;28;20149;-74
2024/01/05 11:42:44;;;;;;;0.50;0.50;;;;;;;4.57;100.00;100436.25;4987294;28;20489;-74
2024/01/05 11:45:45;;;;;;;0.50;0.50;;;;;;;4.75;100.00;100442.50;5000748;28;20032;-74